createdAt,value
2018-06-13T00:02:28.381Z,1.63
2018-06-13T00:07:31.431Z,2.60
2018-06-13T00:12:34.461Z,1.77
2018-06-13T00:17:37.563Z,1.60
2018-06-13T00:22:40.569Z,2.67
2018-06-13T00:27:43.601Z,1.70
2018-06-13T00:32:46.613Z,2.17
2018-06-13T00:37:49.614Z,1.80
2018-06-13T00:42:52.637Z,1.90
2018-06-13T00:47:55.654Z,2.13
2018-06-13T00:52:58.715Z,1.93
2018-06-13T00:58:01.745Z,2.20
2018-06-13T01:03:04.857Z,2.37
2018-06-13T01:08:07.852Z,2.40
2018-06-13T01:13:10.885Z,1.90
2018-06-13T01:18:13.909Z,2.20
2018-06-13T01:23:16.960Z,2.10
2018-06-13T01:28:20.045Z,1.77
2018-06-13T01:33:23.086Z,2.37
2018-06-13T01:38:26.081Z,2.43
2018-06-13T01:43:29.137Z,1.80
2018-06-13T01:48:32.161Z,1.73
2018-06-13T01:53:35.255Z,1.73
2018-06-13T01:58:38.296Z,1.97
2018-06-13T02:03:41.325Z,1.70
2018-06-13T02:08:44.411Z,2.43
2018-06-13T02:13:47.468Z,1.60
2018-06-13T02:18:50.502Z,1.40
2018-06-13T02:23:53.536Z,1.53
2018-06-13T02:28:56.590Z,2.00
2018-06-13T02:33:59.663Z,2.40
2018-06-13T02:39:03.176Z,1.77
2018-06-13T02:44:06.250Z,1.87
2018-06-13T02:49:09.328Z,2.03
2018-06-13T02:54:12.378Z,2.50
2018-06-13T02:59:15.394Z,2.10
2018-06-13T03:04:18.443Z,2.50
2018-06-13T03:09:21.991Z,2.80
2018-06-13T03:14:25.038Z,2.63
2018-06-13T03:19:28.097Z,2.60
2018-06-13T03:24:31.112Z,2.20
2018-06-13T03:29:34.165Z,1.90
2018-06-13T03:34:37.222Z,2.27
2018-06-13T03:39:40.282Z,2.00
2018-06-13T03:44:43.370Z,1.80
2018-06-13T03:49:46.372Z,1.83
2018-06-13T03:54:49.401Z,3.13
2018-06-13T03:59:52.528Z,1.93
2018-06-13T04:04:55.600Z,2.77
2018-06-13T04:09:58.742Z,2.73
2018-06-13T04:15:01.813Z,2.90
2018-06-13T04:20:05.090Z,2.20
2018-06-13T04:25:08.106Z,3.13
2018-06-13T04:30:11.114Z,2.67
2018-06-13T04:35:14.110Z,2.57
2018-06-13T04:40:17.161Z,2.97
2018-06-13T04:45:20.212Z,3.23
2018-06-13T04:50:23.239Z,2.70
2018-06-13T04:55:26.363Z,2.83
2018-06-13T05:00:29.463Z,2.80
2018-06-13T05:05:32.529Z,2.87
2018-06-13T05:10:35.602Z,2.57
2018-06-13T05:15:38.654Z,2.50
2018-06-13T05:20:41.732Z,2.57
2018-06-13T05:25:45.205Z,3.37
2018-06-13T05:30:48.208Z,2.90
2018-06-13T05:35:51.261Z,2.23
2018-06-13T05:40:54.348Z,2.23
2018-06-13T05:45:57.366Z,2.50
2018-06-13T05:51:00.401Z,2.13
2018-06-13T05:56:03.413Z,2.70
2018-06-13T06:01:06.472Z,1.97
2018-06-13T06:06:09.417Z,2.10
2018-06-13T06:11:12.385Z,2.10
2018-06-13T06:16:15.404Z,2.10
2018-06-13T06:21:18.447Z,2.37
2018-06-13T06:26:21.539Z,1.67
2018-06-13T06:31:24.542Z,1.80
2018-06-13T06:36:27.554Z,1.73
2018-06-13T06:41:30.594Z,2.73
2018-06-13T06:46:33.591Z,2.07
2018-06-13T06:51:36.626Z,1.57
2018-06-13T06:56:39.642Z,2.37
2018-06-13T07:01:42.646Z,2.53
2018-06-13T07:06:45.650Z,2.10
2018-06-13T07:11:48.679Z,1.90
2018-06-13T07:16:51.772Z,2.80
2018-06-13T07:21:54.789Z,2.13
2018-06-13T07:26:57.798Z,2.00
2018-06-13T07:32:00.798Z,1.90
2018-06-13T07:37:03.873Z,2.20
2018-06-13T07:42:06.948Z,2.00
2018-06-13T07:47:10.052Z,1.90
2018-06-13T07:52:13.036Z,2.10
2018-06-13T07:57:17.994Z,1.83
2018-06-13T08:02:21.114Z,2.00
2018-06-13T08:07:25.182Z,1.80
2018-06-13T08:12:28.142Z,1.60
2018-06-13T08:17:31.141Z,1.10
2018-06-13T08:22:34.138Z,1.17
2018-06-13T08:27:50.123Z,1.13
2018-06-13T08:32:53.166Z,1.00
2018-06-13T08:37:56.169Z,1.00
2018-06-13T08:42:59.158Z,1.20
2018-06-13T08:48:02.227Z,1.20
2018-06-13T08:53:05.278Z,1.00
2018-06-13T08:58:08.259Z,1.07
2018-06-13T09:03:11.265Z,0.77
2018-06-13T09:08:14.232Z,0.93
2018-06-13T09:13:17.227Z,1.30
2018-06-13T09:18:20.278Z,1.10
2018-06-13T09:23:23.275Z,1.93
2018-06-13T09:28:26.350Z,1.30
2018-06-13T09:33:29.333Z,2.07
2018-06-13T09:38:32.376Z,2.00
2018-06-13T09:43:35.390Z,2.10
2018-06-13T09:48:38.464Z,2.40
2018-06-13T09:53:41.441Z,1.30
2018-06-13T09:58:50.236Z,1.50
2018-06-13T10:03:53.239Z,1.50
2018-06-13T10:08:56.265Z,1.40
2018-06-13T10:13:59.270Z,1.17
2018-06-13T10:19:02.318Z,2.17
2018-06-13T10:24:05.418Z,1.10
2018-06-13T10:29:08.386Z,1.30
2018-06-13T10:34:11.452Z,1.50
2018-06-13T10:39:14.437Z,1.67
2018-06-13T10:44:17.465Z,2.13
2018-06-13T10:49:20.469Z,1.70
2018-06-13T10:54:23.506Z,1.63
2018-06-13T10:59:26.513Z,1.63
2018-06-13T11:04:29.493Z,1.80
2018-06-13T11:09:32.502Z,3.73
2018-06-13T11:14:35.557Z,1.33
2018-06-13T11:19:38.570Z,1.33
2018-06-13T11:24:41.564Z,1.00
2018-06-13T11:29:44.540Z,1.30
2018-06-13T11:34:52.110Z,1.40
2018-06-13T11:39:55.101Z,1.33
2018-06-13T11:44:58.082Z,1.60
2018-06-13T11:50:01.115Z,1.90
2018-06-13T11:55:04.473Z,1.57
2018-06-13T12:00:07.526Z,2.63
2018-06-13T12:05:10.674Z,1.80
2018-06-13T12:10:13.658Z,2.10
2018-06-13T12:15:16.718Z,2.20
2018-06-13T12:20:19.734Z,2.00
2018-06-13T12:25:22.757Z,2.30
2018-06-13T12:30:25.742Z,2.10
2018-06-13T12:35:29.657Z,1.70
2018-06-13T12:40:32.670Z,1.87
2018-06-13T12:45:35.802Z,2.00
2018-06-13T12:50:38.765Z,2.33
2018-06-13T12:55:41.762Z,2.03
2018-06-13T13:00:44.745Z,2.10
2018-06-13T13:05:47.801Z,1.90
2018-06-13T13:10:50.786Z,2.17
2018-06-13T13:15:53.819Z,1.87
2018-06-13T13:20:56.851Z,3.23
2018-06-13T13:25:59.856Z,2.07
2018-06-13T13:31:02.902Z,2.00
2018-06-13T13:36:06.098Z,2.10
2018-06-13T13:41:09.070Z,1.87
2018-06-13T13:46:12.046Z,1.83
2018-06-13T13:51:15.022Z,1.90
2018-06-13T13:56:18.100Z,1.77
2018-06-13T14:01:21.088Z,2.30
2018-06-13T14:06:24.146Z,1.50
2018-06-13T14:11:27.134Z,1.90
2018-06-13T14:16:30.160Z,1.90
2018-06-13T14:21:33.150Z,1.60
2018-06-13T14:26:36.157Z,1.80
2018-06-13T14:31:39.146Z,1.63
2018-06-13T14:36:42.128Z,1.67
2018-06-13T14:41:45.174Z,2.20
2018-06-13T14:46:50.021Z,1.73
2018-06-13T14:51:54.243Z,1.57
2018-06-13T14:56:57.250Z,1.53
2018-06-13T15:02:00.343Z,1.70
2018-06-13T15:07:05.482Z,1.73
2018-06-13T15:12:08.569Z,1.40
2018-06-13T15:17:11.589Z,1.73
2018-06-13T15:22:14.642Z,1.63
2018-06-13T15:27:17.629Z,1.87
2018-06-13T15:32:20.649Z,1.87
2018-06-13T15:37:23.701Z,1.70
2018-06-13T15:42:26.747Z,1.90
2018-06-13T15:47:30.030Z,1.87
2018-06-13T15:52:33.071Z,1.70
2018-06-13T15:57:36.382Z,1.73
2018-06-13T16:02:39.389Z,1.60
2018-06-13T16:07:42.489Z,2.27
2018-06-13T16:12:45.542Z,1.67
2018-06-13T16:17:48.610Z,1.97
2018-06-13T16:22:51.620Z,1.43
2018-06-13T16:27:54.673Z,1.43
2018-06-13T16:32:57.645Z,1.67
2018-06-13T16:38:00.669Z,1.67
2018-06-13T16:43:03.743Z,2.40
2018-06-13T16:48:06.786Z,1.80
2018-06-13T16:53:22.617Z,2.23
2018-06-13T16:58:25.652Z,2.30
2018-06-13T17:03:28.751Z,2.37
2018-06-13T17:08:31.775Z,2.27
2018-06-13T17:13:34.813Z,2.30
2018-06-13T17:18:37.843Z,2.00
2018-06-13T17:23:40.846Z,2.43
2018-06-13T17:28:43.980Z,1.90
2018-06-13T17:33:47.006Z,1.70
2018-06-13T17:38:50.050Z,2.00
2018-06-13T17:43:53.065Z,2.07
2018-06-13T17:48:56.509Z,1.90
2018-06-13T17:53:59.571Z,1.67
2018-06-13T17:59:02.852Z,2.07
2018-06-13T18:04:05.931Z,1.70
2018-06-13T18:09:09.397Z,2.23
2018-06-13T18:14:12.401Z,1.60
2018-06-13T18:19:15.474Z,1.60
2018-06-13T18:24:18.518Z,1.40
2018-06-13T18:29:21.600Z,2.00
2018-06-13T18:34:24.643Z,1.50
2018-06-13T18:39:27.758Z,1.57
2018-06-13T18:44:32.782Z,1.87
2018-06-13T18:49:38.264Z,1.53
2018-06-13T18:54:41.413Z,1.10
2018-06-13T18:59:44.452Z,1.40
2018-06-13T19:04:47.446Z,1.40
2018-06-13T19:09:50.489Z,1.43
2018-06-13T19:14:53.565Z,1.30
2018-06-13T19:19:56.669Z,1.50
2018-06-13T19:25:00.190Z,1.40
2018-06-13T19:30:03.329Z,1.60
2018-06-13T19:35:06.348Z,1.43
2018-06-13T19:40:09.348Z,1.10
2018-06-13T19:45:12.373Z,1.40
2018-06-13T19:50:15.390Z,1.43
2018-06-13T19:55:24.285Z,1.40
2018-06-13T20:00:27.402Z,1.40
2018-06-13T20:05:36.396Z,1.20
2018-06-13T20:10:39.454Z,1.57
2018-06-13T20:15:48.302Z,1.53
2018-06-13T20:20:51.335Z,1.30
2018-06-13T20:25:59.909Z,1.27
2018-06-13T20:31:08.635Z,1.50
2018-06-13T20:36:11.765Z,1.70
2018-06-13T20:41:14.801Z,1.50
2018-06-13T20:46:17.942Z,1.80
2018-06-13T20:51:21.103Z,2.03
2018-06-13T20:56:24.115Z,2.10
2018-06-13T21:01:27.128Z,1.80
2018-06-13T21:06:30.128Z,1.77
2018-06-13T21:11:33.147Z,1.53
2018-06-13T21:16:36.277Z,2.20
2018-06-13T21:21:39.370Z,1.97
2018-06-13T21:26:42.375Z,1.80
2018-06-13T21:31:45.494Z,2.10
2018-06-13T21:36:48.520Z,2.00
2018-06-13T21:41:51.567Z,2.27
2018-06-13T21:46:54.634Z,2.37
2018-06-13T21:51:57.707Z,2.07
2018-06-13T21:57:01.135Z,2.30
2018-06-13T22:02:04.194Z,2.40
2018-06-13T22:07:07.442Z,1.90
2018-06-13T22:12:10.483Z,2.10
2018-06-13T22:17:13.498Z,2.50
2018-06-13T22:22:16.497Z,1.90
2018-06-13T22:27:19.714Z,2.10
2018-06-13T22:32:22.734Z,2.70
2018-06-13T22:37:25.750Z,2.47
2018-06-13T22:42:29.022Z,2.60
2018-06-13T22:47:32.026Z,2.27
2018-06-13T22:52:35.034Z,2.67
2018-06-13T22:57:38.102Z,2.77
2018-06-13T23:02:41.110Z,2.80
2018-06-13T23:07:44.134Z,2.53
2018-06-13T23:12:47.148Z,2.63
2018-06-13T23:17:50.183Z,2.50
2018-06-13T23:22:53.359Z,3.07
2018-06-13T23:27:56.457Z,2.27
2018-06-13T23:32:59.799Z,2.77
2018-06-13T23:38:03.209Z,2.90
2018-06-13T23:43:06.353Z,2.57
2018-06-13T23:48:09.431Z,2.90
2018-06-13T23:53:12.494Z,3.20
2018-06-13T23:58:15.546Z,3.10
